Time;durP1;ratioP1;P1;durP2;ratioP2;P2;SDS_P1;SDS_P2;PMS_P1;PMS_P2;Temp;Humidity;BMP_temperature;BMP_pressure;BME280_temperature;BME280_humidity;BME280_pressure;Samples;Min_cycle;Max_cycle;Signal;HPM_P1;HPM_P2
2021/05/20 00:02:16;;;;;;;2.80;2.60;;;;;;;;;;4994337;28;20199;-81
2021/05/20 00:04:43;;;;;;;2.53;2.33;;;;;;;;;;4993696;28;20226;-82
2021/05/20 00:07:10;;;;;;;2.75;2.55;;;;;;;;;;4993730;28;20220;-82
2021/05/20 00:09:37;;;;;;;2.25;2.05;;;;;;;;;;4994001;28;20192;-81
2021/05/20 00:12:05;;;;;;;2.50;2.30;;;;;;;;;;4993850;28;20200;-82
2021/05/20 00:14:33;;;;;;;4.15;2.92;;;;;;;;;;4993544;28;20211;-82
2021/05/20 00:17:00;;;;;;;3.75;2.65;;;;;;;;;;4993576;28;20236;-82
2021/05/20 00:19:27;;;;;;;3.28;3.03;;;;;;;;;;4993560;28;20191;-82
2021/05/20 00:21:54;;;;;;;3.28;3.08;;;;;;;;;;4993212;28;20721;-82
2021/05/20 00:24:21;;;;;;;3.10;2.80;;;;;;;;;;4992950;28;20184;-82
2021/05/20 00:26:48;;;;;;;2.65;2.45;;;;;;;;;;4993145;28;20721;-82
2021/05/20 00:29:15;;;;;;;3.03;2.83;;;;;;;;;;4993843;28;20195;-82
2021/05/20 00:31:42;;;;;;;2.88;2.67;;;;;;;;;;4992922;28;20208;-82
2021/05/20 00:34:09;;;;;;;2.90;2.70;;;;;;;;;;4993447;28;20631;-82
2021/05/20 00:36:36;;;;;;;3.03;2.83;;;;;;;;;;4992972;28;20581;-82
2021/05/20 00:39:04;;;;;;;2.97;2.55;;;;;;;;;;4993382;28;20214;-82
2021/05/20 00:41:32;;;;;;;2.67;2.47;;;;;;;;;;4993468;28;20183;-81
2021/05/20 00:43:58;;;;;;;2.72;2.53;;;;;;;;;;4993521;28;20604;-82
2021/05/20 00:46:25;;;;;;;2.88;2.67;;;;;;;;;;4993365;28;20224;-82
2021/05/20 00:48:53;;;;;;;6.25;3.42;;;;;;;;;;4993212;28;20200;-82
2021/05/20 00:51:20;;;;;;;2.75;2.55;;;;;;;;;;4993402;28;20183;-82
2021/05/20 00:53:51;;;;;;;3.28;2.95;;;;;;;;;;4993194;28;20615;-81
2021/05/20 00:56:20;;;;;;;3.38;3.10;;;;;;;;;;4993215;28;20228;-82
2021/05/20 00:58:47;;;;;;;3.03;2.83;;;;;;;;;;4993176;28;20673;-82
2021/05/20 01:01:14;;;;;;;2.28;2.13;;;;;;;;;;4993391;28;20212;-82
2021/05/20 01:03:41;;;;;;;3.03;2.83;;;;;;;;;;4993625;28;20203;-82
2021/05/20 01:06:09;;;;;;;4.10;3.38;;;;;;;;;;4993322;28;20188;-82
2021/05/20 01:08:36;;;;;;;3.30;3.00;;;;;;;;;;4993330;28;20195;-82
2021/05/20 01:11:03;;;;;;;3.08;2.80;;;;;;;;;;4993016;28;20573;-82
2021/05/20 01:13:30;;;;;;;2.80;2.60;;;;;;;;;;4992734;28;20208;-81
2021/05/20 01:15:57;;;;;;;3.15;2.95;;;;;;;;;;4993287;28;20208;-82
2021/05/20 01:18:24;;;;;;;3.88;3.58;;;;;;;;;;4993043;28;20220;-81
2021/05/20 01:20:51;;;;;;;3.80;3.35;;;;;;;;;;4992793;28;20223;-82
2021/05/20 01:23:20;;;;;;;3.85;3.53;;;;;;;;;;4993239;28;20211;-82
2021/05/20 01:25:49;;;;;;;4.25;3.85;;;;;;;;;;4992841;28;20954;-82
2021/05/20 01:28:18;;;;;;;4.53;3.75;;;;;;;;;;4993051;28;20569;-81
2021/05/20 01:30:47;;;;;;;3.70;3.38;;;;;;;;;;4992997;28;20200;-82
2021/05/20 01:33:14;;;;;;;4.50;4.10;;;;;;;;;;4992867;28;20211;-82
2021/05/20 01:35:41;;;;;;;4.63;3.97;;;;;;;;;;4994323;28;20556;-83
2021/05/20 01:38:41;;;;;;;4.90;4.22;;;;;;;;;;4996405;28;20227;-81
2021/05/20 01:41:10;;;;;;;5.70;5.20;;;;;;;;;;4996929;28;20200;-82
2021/05/20 01:43:38;;;;;;;5.65;5.13;;;;;;;;;;4996510;28;20184;-81
2021/05/20 01:46:06;;;;;;;6.45;5.85;;;;;;;;;;4996743;28;20222;-82
2021/05/20 01:48:37;;;;;;;5.85;5.28;;;;;;;;;;4996726;28;20180;-82
2021/05/20 01:51:06;;;;;;;6.22;5.60;;;;;;;;;;4996717;28;20199;-82
2021/05/20 01:53:36;;;;;;;5.60;5.10;;;;;;;;;;4996336;28;20706;-82
2021/05/20 01:56:05;;;;;;;5.40;4.90;;;;;;;;;;4996268;28;20193;-82
2021/05/20 01:58:33;;;;;;;6.65;6.00;;;;;;;;;;4996674;28;20195;-82
2021/05/20 02:01:00;;;;;;;7.03;6.38;;;;;;;;;;4996233;28;20203;-81
2021/05/20 02:03:27;;;;;;;8.70;6.60;;;;;;;;;;4996492;28;20192;-82
2021/05/20 02:05:57;;;;;;;6.88;5.88;;;;;;;;;;4996432;28;20203;-81
2021/05/20 02:08:24;;;;;;;7.03;6.03;;;;;;;;;;4996205;28;20254;-82
2021/05/20 02:10:52;;;;;;;6.30;5.30;;;;;;;;;;4996377;28;20215;-81
2021/05/20 02:13:19;;;;;;;7.63;6.30;;;;;;;;;;4996299;28;20199;-82
2021/05/20 02:15:45;;;;;;;7.22;6.57;;;;;;;;;;4994745;28;20584;-82
2021/05/20 02:18:13;;;;;;;7.35;6.28;;;;;;;;;;4995688;28;20274;-82
2021/05/20 02:20:40;;;;;;;7.63;6.70;;;;;;;;;;4995664;28;20232;-82
2021/05/20 02:23:07;;;;;;;7.28;6.57;;;;;;;;;;4996114;28;20545;-82
2021/05/20 02:25:34;;;;;;;7.20;6.40;;;;;;;;;;4995824;28;20184;-82
2021/05/20 02:28:02;;;;;;;8.07;7.28;;;;;;;;;;4995496;28;20224;-82
2021/05/20 02:30:29;;;;;;;7.28;6.57;;;;;;;;;;4994814;28;20196;-82
2021/05/20 02:32:56;;;;;;;9.10;7.85;;;;;;;;;;4995207;28;20210;-82
2021/05/20 02:35:23;;;;;;;11.05;8.02;;;;;;;;;;4995574;28;20658;-81
2021/05/20 02:37:50;;;;;;;8.70;7.80;;;;;;;;;;4995093;28;20238;-82
2021/05/20 02:40:18;;;;;;;8.35;7.55;;;;;;;;;;4995834;28;20240;-82
2021/05/20 02:42:46;;;;;;;8.88;7.65;;;;;;;;;;4995606;28;20198;-82
2021/05/20 02:45:18;;;;;;;7.47;6.75;;;;;;;;;;4995738;28;20188;-82
2021/05/20 02:47:45;;;;;;;8.55;7.20;;;;;;;;;;4994677;28;20736;-82
2021/05/20 02:50:14;;;;;;;9.45;7.00;;;;;;;;;;4995314;28;20192;-82
2021/05/20 02:52:43;;;;;;;9.95;7.95;;;;;;;;;;4995363;28;20688;-82
2021/05/20 02:55:12;;;;;;;10.05;7.93;;;;;;;;;;4995555;28;20195;-82
2021/05/20 02:57:41;;;;;;;7.63;6.88;;;;;;;;;;4994862;28;20689;-82
2021/05/20 03:00:10;;;;;;;8.10;7.22;;;;;;;;;;4995572;28;20603;-81
2021/05/20 03:02:38;;;;;;;8.88;7.45;;;;;;;;;;4995763;28;20635;-82
2021/05/20 03:05:08;;;;;;;9.10;8.20;;;;;;;;;;4995246;28;20199;-82
2021/05/20 03:07:35;;;;;;;11.32;9.68;;;;;;;;;;4995038;28;20281;-82
2021/05/20 03:10:03;;;;;;;9.48;8.57;;;;;;;;;;4995333;28;20190;-82
2021/05/20 03:12:30;;;;;;;10.57;9.48;;;;;;;;;;4995404;28;20661;-82
2021/05/20 03:14:57;;;;;;;12.75;9.68;;;;;;;;;;4995313;28;20198;-82
2021/05/20 03:17:24;;;;;;;13.30;10.25;;;;;;;;;;4995194;28;20231;-82
2021/05/20 03:19:51;;;;;;;14.02;10.10;;;;;;;;;;4995072;28;20184;-82
2021/05/20 03:22:19;;;;;;;14.63;11.75;;;;;;;;;;4995257;28;20185;-82
2021/05/20 03:24:46;;;;;;;13.65;12.15;;;;;;;;;;4995254;28;20611;-82
2021/05/20 03:27:12;;;;;;;14.45;12.93;;;;;;;;;;4994804;28;20626;-82
2021/05/20 03:29:39;;;;;;;14.82;12.10;;;;;;;;;;4995708;28;20192;-82
2021/05/20 03:32:07;;;;;;;14.57;13.13;;;;;;;;;;4996037;28;20188;-82
2021/05/20 03:34:34;;;;;;;14.57;12.88;;;;;;;;;;4995288;28;20207;-82
2021/05/20 03:37:03;;;;;;;14.27;12.65;;;;;;;;;;4994440;28;20445;-81
2021/05/20 03:39:30;;;;;;;14.23;11.80;;;;;;;;;;4995289;28;20204;-81
2021/05/20 03:41:57;;;;;;;14.60;12.77;;;;;;;;;;4994769;28;20212;-82
2021/05/20 03:44:24;;;;;;;13.68;12.00;;;;;;;;;;4994902;28;20187;-82
2021/05/20 03:46:51;;;;;;;16.55;13.50;;;;;;;;;;4995001;28;20223;-82
2021/05/20 03:49:19;;;;;;;16.98;13.85;;;;;;;;;;4994276;28;20204;-81
2021/05/20 03:51:45;;;;;;;18.48;13.48;;;;;;;;;;4994787;28;20203;-82
2021/05/20 03:54:13;;;;;;;17.13;13.27;;;;;;;;;;4994402;28;20184;-82
2021/05/20 03:56:40;;;;;;;16.70;13.05;;;;;;;;;;4994132;28;20225;-82
2021/05/20 03:59:07;;;;;;;14.50;12.98;;;;;;;;;;4993980;28;20653;-82
2021/05/20 04:01:34;;;;;;;17.08;14.25;;;;;;;;;;4994457;28;20207;-82
2021/05/20 04:04:01;;;;;;;15.45;13.23;;;;;;;;;;4993778;28;20204;-82
2021/05/20 04:06:27;;;;;;;14.98;13.38;;;;;;;;;;4994017;28;20681;-82
2021/05/20 04:08:54;;;;;;;15.80;12.73;;;;;;;;;;4994259;28;20215;-82
2021/05/20 04:11:22;;;;;;;16.05;13.00;;;;;;;;;;4995028;28;20195;-82
2021/05/20 04:13:49;;;;;;;15.85;12.57;;;;;;;;;;4994202;28;20234;-82
2021/05/20 04:16:16;;;;;;;16.17;14.13;;;;;;;;;;4994179;28;20567;-82
2021/05/20 04:18:44;;;;;;;14.93;13.25;;;;;;;;;;4994437;28;20252;-82
2021/05/20 04:21:10;;;;;;;15.45;12.60;;;;;;;;;;4994284;28;20231;-82
2021/05/20 04:23:43;;;;;;;13.77;12.40;;;;;;;;;;4994095;28;20211;-82
2021/05/20 04:26:10;;;;;;;16.30;12.82;;;;;;;;;;4993837;28;20188;-82
2021/05/20 04:28:38;;;;;;;18.10;12.85;;;;;;;;;;4993372;28;20188;-82
2021/05/20 04:31:05;;;;;;;17.65;13.77;;;;;;;;;;4993376;28;20214;-81
2021/05/20 04:33:32;;;;;;;19.42;14.60;;;;;;;;;;4993763;28;20211;-82
2021/05/20 04:35:58;;;;;;;14.32;12.55;;;;;;;;;;4994794;28;20191;-82
2021/05/20 04:38:25;;;;;;;17.80;13.15;;;;;;;;;;4996582;28;20231;-82
2021/05/20 04:40:52;;;;;;;16.33;14.27;;;;;;;;;;4993425;28;20253;-82
2021/05/20 04:43:19;;;;;;;14.35;12.85;;;;;;;;;;4993206;28;20688;-82
2021/05/20 04:45:47;;;;;;;19.75;14.50;;;;;;;;;;4993599;28;20196;-82
2021/05/20 04:48:14;;;;;;;17.35;13.40;;;;;;;;;;4993450;28;20223;-82
2021/05/20 04:50:41;;;;;;;19.58;14.13;;;;;;;;;;4993023;28;20214;-82
2021/05/20 04:53:08;;;;;;;19.05;13.65;;;;;;;;;;4993371;28;20195;-82
2021/05/20 04:55:35;;;;;;;15.32;12.60;;;;;;;;;;4993468;28;20192;-82
2021/05/20 04:58:03;;;;;;;16.67;13.05;;;;;;;;;;4993008;28;20694;-82
2021/05/20 05:00:30;;;;;;;14.70;12.80;;;;;;;;;;4993916;28;20204;-82
2021/05/20 05:02:58;;;;;;;17.52;13.27;;;;;;;;;;4993258;28;20192;-82
2021/05/20 05:05:25;;;;;;;14.55;12.50;;;;;;;;;;4993540;28;20688;-82
2021/05/20 05:07:51;;;;;;;15.75;13.25;;;;;;;;;;4993176;28;20220;-82
2021/05/20 05:10:18;;;;;;;17.88;15.25;;;;;;;;;;4994070;28;20192;-82
2021/05/20 05:12:45;;;;;;;16.42;13.38;;;;;;;;;;4996962;28;20200;-82
2021/05/20 05:15:12;;;;;;;17.85;13.75;;;;;;;;;;4997645;28;20199;-82
2021/05/20 05:17:39;;;;;;;15.75;13.68;;;;;;;;;;4997183;28;20230;-82
2021/05/20 05:20:09;;;;;;;20.50;15.07;;;;;;;;;;4998018;28;20219;-82
2021/05/20 05:22:36;;;;;;;15.27;13.00;;;;;;;;;;4997931;28;20199;-82
2021/05/20 05:25:04;;;;;;;16.60;13.48;;;;;;;;;;4997488;28;20199;-82
2021/05/20 05:27:31;;;;;;;20.05;14.63;;;;;;;;;;4997770;28;20223;-82
2021/05/20 05:29:58;;;;;;;15.55;11.88;;;;;;;;;;4997136;28;20284;-83
2021/05/20 05:32:25;;;;;;;14.63;13.13;;;;;;;;;;4997526;28;20230;-82
2021/05/20 05:34:52;;;;;;;13.23;11.68;;;;;;;;;;4997663;28;20559;-83
2021/05/20 05:37:20;;;;;;;16.08;11.65;;;;;;;;;;4997056;28;20702;-82
2021/05/20 05:39:46;;;;;;;15.27;12.52;;;;;;;;;;4997229;28;20212;-83
2021/05/20 05:42:13;;;;;;;16.35;12.40;;;;;;;;;;4996970;28;20570;-83
2021/05/20 05:44:40;;;;;;;15.98;13.18;;;;;;;;;;4997956;28;20198;-83
2021/05/20 05:47:08;;;;;;;17.45;13.18;;;;;;;;;;4996950;28;20282;-83
2021/05/20 05:49:40;;;;;;;18.58;14.27;;;;;;;;;;4997557;28;20184;-83
2021/05/20 05:52:09;;;;;;;14.02;12.05;;;;;;;;;;4997493;28;20258;-83
2021/05/20 05:54:39;;;;;;;16.95;13.48;;;;;;;;;;4997156;28;20200;-83
2021/05/20 05:57:06;;;;;;;18.13;13.70;;;;;;;;;;4997065;28;20220;-83
2021/05/20 05:59:33;;;;;;;17.83;12.50;;;;;;;;;;4997090;28;20227;-83
2021/05/20 06:02:00;;;;;;;18.33;15.25;;;;;;;;;;4997958;28;20185;-83
2021/05/20 06:04:27;;;;;;;14.68;12.38;;;;;;;;;;4996531;28;20185;-83
2021/05/20 06:06:54;;;;;;;13.80;11.68;;;;;;;;;;4996484;28;20223;-83
2021/05/20 06:09:21;;;;;;;14.38;12.88;;;;;;;;;;4996070;28;20203;-83
2021/05/20 06:11:49;;;;;;;14.95;12.60;;;;;;;;;;4996744;28;20195;-83
2021/05/20 06:14:15;;;;;;;14.60;12.77;;;;;;;;;;4995663;28;20215;-83
2021/05/20 06:16:42;;;;;;;15.88;13.13;;;;;;;;;;4995728;28;20597;-83
2021/05/20 06:19:11;;;;;;;13.82;12.02;;;;;;;;;;4996001;28;20223;-83
2021/05/20 06:21:38;;;;;;;12.55;11.13;;;;;;;;;;4996064;28;20271;-83
2021/05/20 06:24:06;;;;;;;13.40;11.18;;;;;;;;;;4996232;28;20318;-83
2021/05/20 06:26:34;;;;;;;14.98;13.32;;;;;;;;;;4996163;28;20223;-83
2021/05/20 06:29:02;;;;;;;15.30;13.13;;;;;;;;;;4996597;28;20185;-83
2021/05/20 06:31:29;;;;;;;13.63;11.80;;;;;;;;;;4996118;28;20203;-83
2021/05/20 06:33:56;;;;;;;13.30;11.45;;;;;;;;;;4996935;28;20572;-84
2021/05/20 06:36:24;;;;;;;12.85;11.50;;;;;;;;;;4995416;28;20713;-84
2021/05/20 06:38:52;;;;;;;12.27;10.98;;;;;;;;;;4995525;28;20212;-83
2021/05/20 06:41:19;;;;;;;12.93;11.45;;;;;;;;;;4996284;28;20661;-84
2021/05/20 06:43:46;;;;;;;11.52;10.27;;;;;;;;;;4995312;28;20203;-83
2021/05/20 06:46:14;;;;;;;13.65;12.15;;;;;;;;;;4996058;28;20189;-84
2021/05/20 06:48:40;;;;;;;12.95;11.40;;;;;;;;;;4996281;28;20692;-84
2021/05/20 06:51:07;;;;;;;12.48;11.18;;;;;;;;;;4996084;28;20849;-84
2021/05/20 06:53:36;;;;;;;14.65;11.80;;;;;;;;;;4995845;28;20195;-83
2021/05/20 06:56:05;;;;;;;11.68;9.98;;;;;;;;;;4995342;28;20204;-83
2021/05/20 07:01:18;;;;;;;12.15;10.63;;;;;;;;;;4996269;28;20191;-84
2021/05/20 07:03:45;;;;;;;12.73;10.80;;;;;;;;;;4995854;28;20546;-84
2021/05/20 07:06:13;;;;;;;11.65;10.45;;;;;;;;;;4995876;28;20184;-84
2021/05/20 07:08:40;;;;;;;12.57;11.23;;;;;;;;;;4995657;28;20204;-83
2021/05/20 07:11:07;;;;;;;11.55;10.13;;;;;;;;;;4995365;28;20180;-84
2021/05/20 07:13:34;;;;;;;11.52;10.32;;;;;;;;;;4996415;28;20278;-83
2021/05/20 07:16:01;;;;;;;11.45;10.20;;;;;;;;;;4995875;28;20200;-84
2021/05/20 07:18:29;;;;;;;11.02;9.93;;;;;;;;;;4995356;28;20223;-84
2021/05/20 07:20:56;;;;;;;10.20;8.77;;;;;;;;;;4995890;28;20228;-84
2021/05/20 07:23:23;;;;;;;11.40;10.23;;;;;;;;;;4996127;28;20258;-84
2021/05/20 07:25:50;;;;;;;10.63;9.52;;;;;;;;;;4996277;28;20563;-84
2021/05/20 07:28:17;;;;;;;11.02;8.48;;;;;;;;;;4995583;28;20228;-84
2021/05/20 07:30:44;;;;;;;11.20;10.00;;;;;;;;;;4995225;28;20689;-84
2021/05/20 07:33:12;;;;;;;10.50;9.40;;;;;;;;;;4994801;28;20211;-84
2021/05/20 07:35:40;;;;;;;10.65;9.55;;;;;;;;;;4994557;28;20199;-84
2021/05/20 07:38:07;;;;;;;11.82;9.60;;;;;;;;;;4994487;28;20718;-84
2021/05/20 07:40:34;;;;;;;11.85;9.48;;;;;;;;;;4994341;28;20207;-84
2021/05/20 07:43:01;;;;;;;10.57;9.02;;;;;;;;;;4995688;28;20237;-84
2021/05/20 07:45:28;;;;;;;10.70;9.60;;;;;;;;;;4994708;28;20203;-84
2021/05/20 07:47:54;;;;;;;10.65;9.02;;;;;;;;;;4995589;28;20235;-84
2021/05/20 07:50:21;;;;;;;8.82;7.80;;;;;;;;;;4994607;28;20213;-84
2021/05/20 07:52:49;;;;;;;9.52;8.52;;;;;;;;;;4994185;28;20208;-83
2021/05/20 07:55:16;;;;;;;8.75;7.82;;;;;;;;;;4993539;28;20203;-84
2021/05/20 07:57:43;;;;;;;10.20;9.15;;;;;;;;;;4993525;28;20224;-83
2021/05/20 08:00:13;;;;;;;8.40;7.55;;;;;;;;;;4993684;28;20223;-84
2021/05/20 08:02:47;;;;;;;9.38;8.48;;;;;;;;;;4993953;28;20208;-84
2021/05/20 08:05:22;;;;;;;8.93;8.05;;;;;;;;;;4993625;28;20255;-84
2021/05/20 08:07:54;;;;;;;8.40;7.50;;;;;;;;;;4993394;28;20221;-84
2021/05/20 08:10:42;;;;;;;7.85;7.15;;;;;;;;;;4994335;28;20210;-84
2021/05/20 08:13:09;;;;;;;8.40;7.50;;;;;;;;;;4994259;28;20204;-83
2021/05/20 08:15:36;;;;;;;8.32;7.50;;;;;;;;;;4994208;28;20208;-83
2021/05/20 08:18:03;;;;;;;7.88;7.10;;;;;;;;;;4994501;28;20226;-84
2021/05/20 08:20:30;;;;;;;8.43;7.63;;;;;;;;;;4993955;28;20235;-84
2021/05/20 08:22:57;;;;;;;7.57;6.85;;;;;;;;;;4994828;28;20309;-84
2021/05/20 08:25:24;;;;;;;8.43;6.53;;;;;;;;;;4993596;28;20581;-84
2021/05/20 08:27:51;;;;;;;7.55;6.75;;;;;;;;;;4994253;28;20231;-84
2021/05/20 08:30:19;;;;;;;6.72;6.10;;;;;;;;;;4993765;28;20203;-84
2021/05/20 08:32:47;;;;;;;7.80;6.57;;;;;;;;;;4993355;28;20689;-84
2021/05/20 08:35:14;;;;;;;6.75;6.15;;;;;;;;;;4993872;28;20254;-84
2021/05/20 08:37:41;;;;;;;7.03;6.32;;;;;;;;;;4993299;28;20594;-84
2021/05/20 08:40:11;;;;;;;6.68;6.07;;;;;;;;;;4993232;28;20223;-83
2021/05/20 08:42:38;;;;;;;6.20;5.60;;;;;;;;;;4993709;28;20662;-84
2021/05/20 08:45:12;;;;;;;7.35;6.25;;;;;;;;;;4993085;28;20589;-84
2021/05/20 08:47:39;;;;;;;5.50;5.00;;;;;;;;;;4993798;28;20251;-83
2021/05/20 08:50:07;;;;;;;5.72;5.22;;;;;;;;;;4993125;28;20204;-84
2021/05/20 08:52:35;;;;;;;6.53;5.65;;;;;;;;;;4994248;28;20210;-84
2021/05/20 08:55:03;;;;;;;6.05;5.13;;;;;;;;;;4995413;28;20195;-84
2021/05/20 08:57:30;;;;;;;8.80;7.00;;;;;;;;;;4994503;28;20234;-84
2021/05/20 08:59:57;;;;;;;7.40;6.53;;;;;;;;;;4995131;28;20231;-84
2021/05/20 09:02:26;;;;;;;6.35;5.75;;;;;;;;;;4994616;28;20199;-84
2021/05/20 09:05:01;;;;;;;6.18;5.57;;;;;;;;;;4995421;28;20206;-84
2021/05/20 09:07:35;;;;;;;5.55;5.05;;;;;;;;;;4994875;28;20219;-84
2021/05/20 09:10:12;;;;;;;7.10;6.40;;;;;;;;;;4995441;28;20199;-86
2021/05/20 09:12:41;;;;;;;8.80;6.07;;;;;;;;;;4995244;28;20214;-84
2021/05/20 09:15:21;;;;;;;7.70;7.00;;;;;;;;;;4995372;28;20238;-84
2021/05/20 09:17:49;;;;;;;7.43;6.70;;;;;;;;;;4995104;28;20219;-84
2021/05/20 09:20:17;;;;;;;8.30;7.47;;;;;;;;;;4995060;28;20642;-85
2021/05/20 09:22:44;;;;;;;8.40;6.95;;;;;;;;;;4994707;28;20254;-84
2021/05/20 09:25:13;;;;;;;8.15;7.35;;;;;;;;;;4994702;28;20355;-84
2021/05/20 09:27:43;;;;;;;6.85;5.68;;;;;;;;;;4994120;28;20223;-84
2021/05/20 09:30:19;;;;;;;6.05;5.47;;;;;;;;;;4994276;28;20196;-84
2021/05/20 09:32:51;;;;;;;5.65;5.15;;;;;;;;;;4995831;28;20200;-84
2021/05/20 09:35:21;;;;;;;6.40;5.80;;;;;;;;;;4995503;28;20247;-85
2021/05/20 09:38:00;;;;;;;6.90;6.20;;;;;;;;;;4995564;28;20644;-85
2021/05/20 09:40:30;;;;;;;105.43;18.60;;;;;;;;;;4995061;28;20223;-84
2021/05/20 09:42:58;;;;;;;6.40;5.80;;;;;;;;;;4994839;28;20204;-84
2021/05/20 09:45:27;;;;;;;6.90;6.22;;;;;;;;;;4994029;28;20204;-85
2021/05/20 09:48:05;;;;;;;6.63;5.93;;;;;;;;;;4994711;28;20224;-84
2021/05/20 09:50:38;;;;;;;7.93;5.90;;;;;;;;;;4995423;28;20210;-84
2021/05/20 09:53:09;;;;;;;7.07;6.32;;;;;;;;;;4995150;28;20199;-84
2021/05/20 09:55:36;;;;;;;6.82;5.95;;;;;;;;;;4995105;28;20231;-84
2021/05/20 09:58:09;;;;;;;6.80;6.13;;;;;;;;;;4996980;28;20228;-84
2021/05/20 10:00:37;;;;;;;7.25;5.82;;;;;;;;;;4997255;28;20227;-84
2021/05/20 10:03:07;;;;;;;5.05;4.55;;;;;;;;;;4997664;28;20211;-85
2021/05/20 10:05:36;;;;;;;6.88;6.07;;;;;;;;;;4999073;28;20584;-85
2021/05/20 10:08:06;;;;;;;6.28;5.68;;;;;;;;;;4998910;28;20604;-85
2021/05/20 10:10:36;;;;;;;8.32;7.53;;;;;;;;;;4998757;28;20677;-85
2021/05/20 10:13:06;;;;;;;5.82;5.32;;;;;;;;;;4999390;28;20208;-84
2021/05/20 10:15:35;;;;;;;6.28;5.32;;;;;;;;;;4999144;28;20568;-85
2021/05/20 10:18:07;;;;;;;12.02;5.43;;;;;;;;;;4998648;28;20262;-84
2021/05/20 10:20:34;;;;;;;298.70;37.28;;;;;;;;;;4996559;28;20235;-85
2021/05/20 10:23:02;;;;;;;54.53;10.05;;;;;;;;;;4996332;28;20299;-84
2021/05/20 10:25:29;;;;;;;5.10;4.60;;;;;;;;;;4996515;28;20203;-85
2021/05/20 10:27:55;;;;;;;6.57;5.97;;;;;;;;;;4996684;28;20223;-84
2021/05/20 10:30:25;;;;;;;6.90;4.53;;;;;;;;;;4995439;28;20200;-84
2021/05/20 10:32:57;;;;;;;6.70;5.22;;;;;;;;;;4995298;28;20200;-84
2021/05/20 10:35:31;;;;;;;6.72;5.50;;;;;;;;;;4995271;28;20200;-86
2021/05/20 10:37:59;;;;;;;5.63;4.82;;;;;;;;;;4995859;28;20226;-85
2021/05/20 10:40:33;;;;;;;5.30;4.80;;;;;;;;;;4995857;28;20357;-85
2021/05/20 10:43:11;;;;;;;4.57;4.18;;;;;;;;;;4997457;28;20204;-86
2021/05/20 10:45:40;;;;;;;7.25;4.05;;;;;;;;;;4996562;28;20277;-85
2021/05/20 10:48:24;;;;;;;44.53;9.10;;;;;;;;;;4996329;28;20386;-85
2021/05/20 10:51:14;;;;;;;4.78;4.38;;;;;;;;;;4997476;28;20579;-85
2021/05/20 10:53:50;;;;;;;4.15;3.70;;;;;;;;;;4998690;28;20204;-86
2021/05/20 10:56:49;;;;;;;3.38;3.08;;;;;;;;;;4998585;28;20207;-85
2021/05/20 10:59:44;;;;;;;3.78;3.45;;;;;;;;;;4997598;28;20200;-85
2021/05/20 11:02:48;;;;;;;4.03;3.63;;;;;;;;;;4997808;28;20684;-84
2021/05/20 11:05:56;;;;;;;3.55;3.22;;;;;;;;;;4996522;28;20686;-84
2021/05/20 11:08:59;;;;;;;3.80;3.10;;;;;;;;;;4990111;28;20219;-84
2021/05/20 11:11:50;;;;;;;5.60;3.83;;;;;;;;;;4994932;28;20203;-83
2021/05/20 11:14:52;;;;;;;3.70;3.35;;;;;;;;;;4994870;28;20200;-84
2021/05/20 11:17:40;;;;;;;4.70;4.15;;;;;;;;;;4995587;28;20353;-84
2021/05/20 11:20:41;;;;;;;4.60;3.38;;;;;;;;;;4995765;28;20223;-83
2021/05/20 11:23:39;;;;;;;3.97;3.10;;;;;;;;;;4994587;28;20203;-85
2021/05/20 11:26:18;;;;;;;4.47;3.03;;;;;;;;;;4994688;28;20204;-85
2021/05/20 11:29:09;;;;;;;2.50;2.30;;;;;;;;;;4995883;28;20211;-84
2021/05/20 11:31:36;;;;;;;2.78;2.55;;;;;;;;;;4995671;28;20619;-84
2021/05/20 11:36:55;;;;;;;2.25;2.10;;;;;;;;;;4991621;28;20238;-84
2021/05/20 11:39:23;;;;;;;2.88;2.58;;;;;;;;;;4995688;28;20235;-85
2021/05/20 11:41:53;;;;;;;3.80;2.78;;;;;;;;;;4995829;28;20204;-84
2021/05/20 11:44:22;;;;;;;2.63;2.42;;;;;;;;;;4996261;28;20222;-86
2021/05/20 11:47:04;;;;;;;2.72;2.53;;;;;;;;;;4995881;28;20223;-86
2021/05/20 11:49:32;;;;;;;2.97;2.67;;;;;;;;;;4997484;28;20210;-85
2021/05/20 11:52:02;;;;;;;2.30;2.10;;;;;;;;;;4996390;28;20209;-85
2021/05/20 11:54:32;;;;;;;2.33;2.15;;;;;;;;;;4997650;28;20234;-86
2021/05/20 11:57:01;;;;;;;2.22;2.03;;;;;;;;;;4997342;28;20231;-85
2021/05/20 11:59:48;;;;;;;1.80;1.70;;;;;;;;;;4998188;28;20211;-85
2021/05/20 12:02:20;;;;;;;2.00;1.90;;;;;;;;;;4998240;28;20238;-86
2021/05/20 12:04:47;;;;;;;1.98;1.77;;;;;;;;;;4996802;28;20199;-85
2021/05/20 12:07:22;;;;;;;1.80;1.70;;;;;;;;;;4996587;28;20215;-86
2021/05/20 12:09:50;;;;;;;2.50;2.30;;;;;;;;;;4997195;28;20210;-86
2021/05/20 12:12:19;;;;;;;2.30;2.05;;;;;;;;;;4997706;28;20292;-85
2021/05/20 12:14:47;;;;;;;2.25;2.05;;;;;;;;;;4997265;28;20211;-85
2021/05/20 12:17:17;;;;;;;34.05;5.95;;;;;;;;;;4996731;28;20266;-84
2021/05/20 12:19:46;;;;;;;15.82;3.72;;;;;;;;;;4994882;28;20207;-85
2021/05/20 12:22:20;;;;;;;13.23;3.80;;;;;;;;;;4996984;28;20238;-84
2021/05/20 12:24:50;;;;;;;68.78;10.60;;;;;;;;;;4997157;28;20606;-86
2021/05/20 12:27:20;;;;;;;144.05;18.95;;;;;;;;;;4996307;28;20246;-85
2021/05/20 12:29:50;;;;;;;3.90;2.33;;;;;;;;;;4997885;28;20203;-85
2021/05/20 12:32:39;;;;;;;24.83;4.82;;;;;;;;;;4997107;28;20200;-86
2021/05/20 12:35:19;;;;;;;184.57;25.60;;;;;;;;;;4993991;28;20203;-85
2021/05/20 12:37:57;;;;;;;75.43;11.48;;;;;;;;;;4979454;28;20228;-85
2021/05/20 12:40:28;;;;;;;7.07;2.92;;;;;;;;;;4978685;28;20222;-85
2021/05/20 12:43:11;;;;;;;1.85;1.75;;;;;;;;;;4982353;28;20215;-86
2021/05/20 12:45:40;;;;;;;217.07;28.67;;;;;;;;;;4980585;28;20195;-84
2021/05/20 12:48:23;;;;;;;3.05;2.13;;;;;;;;;;4996586;28;20255;-85
2021/05/20 12:50:52;;;;;;;285.60;28.48;;;;;;;;;;4996224;28;20208;-85
2021/05/20 12:53:44;;;;;;;25.60;5.15;;;;;;;;;;4998554;28;20207;-85
2021/05/20 12:56:30;;;;;;;53.97;8.35;;;;;;;;;;4994355;28;20231;-85
2021/05/20 12:58:59;;;;;;;358.30;52.65;;;;;;;;;;4996164;28;20345;-85
2021/05/20 13:01:28;;;;;;;6.03;2.65;;;;;;;;;;4993416;28;20227;-85
2021/05/20 13:03:58;;;;;;;50.92;7.82;;;;;;;;;;4995035;28;20203;-85
2021/05/20 13:06:29;;;;;;;52.92;9.20;;;;;;;;;;4992916;28;20230;-84
2021/05/20 13:09:06;;;;;;;109.95;13.68;;;;;;;;;;4993819;28;20211;-84
2021/05/20 13:11:37;;;;;;;10.20;2.92;;;;;;;;;;4992944;28;20211;-84
2021/05/20 13:14:24;;;;;;;102.28;14.93;;;;;;;;;;4992970;28;20579;-84
2021/05/20 13:16:55;;;;;;;51.08;7.45;;;;;;;;;;4992928;28;20231;-84
2021/05/20 13:19:48;;;;;;;2.78;2.03;;;;;;;;;;4992779;28;20239;-84
2021/05/20 13:22:26;;;;;;;2.83;2.03;;;;;;;;;;4991988;28;20253;-84
2021/05/20 13:24:56;;;;;;;2.08;1.88;;;;;;;;;;4992815;28;20306;-84
2021/05/20 13:27:25;;;;;;;2.90;2.03;;;;;;;;;;4992257;28;20701;-84
2021/05/20 13:29:56;;;;;;;1.70;1.60;;;;;;;;;;4992377;28;20723;-85
2021/05/20 13:32:32;;;;;;;15.88;3.30;;;;;;;;;;4994780;28;20582;-84
2021/05/20 13:34:59;;;;;;;2.38;1.95;;;;;;;;;;4996295;28;20633;-84
2021/05/20 13:37:26;;;;;;;2.42;1.75;;;;;;;;;;4979194;28;20236;-84
2021/05/20 13:39:53;;;;;;;2.20;1.95;;;;;;;;;;4979188;28;20208;-85
2021/05/20 13:42:20;;;;;;;2.05;1.95;;;;;;;;;;4978444;28;20224;-84
2021/05/20 13:44:49;;;;;;;2.47;2.25;;;;;;;;;;4979052;28;20244;-84
2021/05/20 13:47:16;;;;;;;2.33;2.13;;;;;;;;;;4996003;28;20224;-84
2021/05/20 13:49:44;;;;;;;2.50;2.10;;;;;;;;;;4997814;28;20207;-85
2021/05/20 13:52:16;;;;;;;3.50;2.47;;;;;;;;;;4996782;28;20757;-84
2021/05/20 13:54:43;;;;;;;2.13;1.92;;;;;;;;;;4995935;28;20299;-84
2021/05/20 13:57:11;;;;;;;3.58;2.20;;;;;;;;;;4995582;28;20663;-84
2021/05/20 13:59:39;;;;;;;1.95;1.85;;;;;;;;;;4996013;28;20211;-85
2021/05/20 14:02:10;;;;;;;2.30;2.10;;;;;;;;;;4997849;28;20223;-84
2021/05/20 14:04:37;;;;;;;106.38;16.15;;;;;;;;;;4997773;28;20294;-84
2021/05/20 14:07:06;;;;;;;5.90;2.90;;;;;;;;;;4998112;28;20223;-84
2021/05/20 14:09:33;;;;;;;2.35;2.15;;;;;;;;;;4998129;28;20200;-84
2021/05/20 14:12:00;;;;;;;2.55;2.28;;;;;;;;;;4998308;28;20697;-85
2021/05/20 14:14:28;;;;;;;14.23;4.28;;;;;;;;;;4998464;28;20203;-85
2021/05/20 14:16:55;;;;;;;178.15;20.30;;;;;;;;;;4998358;28;20227;-84
2021/05/20 14:19:23;;;;;;;6.22;2.30;;;;;;;;;;4998676;28;20242;-84
2021/05/20 14:21:51;;;;;;;192.65;21.98;;;;;;;;;;4999083;28;20239;-84
2021/05/20 14:24:19;;;;;;;26.98;5.72;;;;;;;;;;4999013;28;20213;-85
2021/05/20 14:26:47;;;;;;;6.13;4.68;;;;;;;;;;4996818;28;20220;-84
2021/05/20 14:29:14;;;;;;;3.53;2.67;;;;;;;;;;4998601;28;20222;-85
2021/05/20 14:31:41;;;;;;;82.82;9.40;;;;;;;;;;4997343;28;20266;-84
2021/05/20 14:34:08;;;;;;;88.72;11.82;;;;;;;;;;4996230;28;20203;-84
2021/05/20 14:36:36;;;;;;;5.25;3.10;;;;;;;;;;4995552;28;20599;-84
2021/05/20 14:39:04;;;;;;;19.42;4.95;;;;;;;;;;4995727;28;20215;-85
2021/05/20 14:41:31;;;;;;;2.78;2.22;;;;;;;;;;4996151;28;20263;-85
2021/05/20 14:43:58;;;;;;;5.50;1.98;;;;;;;;;;4995360;28;20207;-83
2021/05/20 14:46:25;;;;;;;2.63;2.05;;;;;;;;;;4989388;28;20736;-84
2021/05/20 14:48:52;;;;;;;3.28;2.75;;;;;;;;;;5000079;28;20662;-85
2021/05/20 14:51:22;;;;;;;2.55;2.30;;;;;;;;;;4997307;28;20208;-83
2021/05/20 14:53:55;;;;;;;3.15;2.17;;;;;;;;;;4996056;28;20210;-83
2021/05/20 14:56:25;;;;;;;2.55;2.25;;;;;;;;;;4995995;28;20204;-84